Pagrindinis puslapis
METAR-TAF:

METAR-TAF

Oro uostai :

Florianopolis, Santa Katarina, Brazilija

platuma: 27-40S, ilguma: 048-33W, Aukštis: 5 m

Dabartinis oras

Ataskaita buvo paskelbta 25 minutes, ne 23:00 UTC
Vėjas 8 kt iš Pietų
Temperatūra 21°C
Drėgmė 73%
Slėgis 1015 hPa
Matomumas 10 km arba daugiau
Su prošvaistėmis ne aukštis 4000 ft

METAR: SBFL 212300Z 19008KT 9999 BKN040 21/16 Q1015

Laikas: 20:25 (23:25 UTC)

Prognozė

Ataskaita buvo paskelbta 7 valandos ir 25 minutes, ne 16:00 UTC
Prognozė galioja nuo 21 metu 18 UTC su 22 metu 18 UTC
Vėjas 10 kt iš Pietų
Matomumas 10 km arba daugiau
Išsisklaidę debesys ne aukštis 3500 ft

TAF: SBFL 211600Z 2118/2218 18010KT 9999 SCT035 TX25/2118Z TN16/2207Z RMK PEB

Orai ataskaitas ir orų prognozės (METAR, TAF).

turimą stotys yra geltonos ir raudonos taškus žemėlapyje.

Perkelti pele per norėdami pamatyti stoties vardą.

Tada spustelėkite, norėdami matyti oro stebėjimo ir prognozės.

Norėdami pakeisti žemėlapį: spustelėkite ant žalios mygtukų su juodo kryžiaus žemyn,; žalią mygtuką su brūkšneliu, jei norite nutolinti; arba žalių rodyklių gretimoms žemėlapius.


METAR-TAF: